Time;durP1;ratioP1;P1;durP2;ratioP2;P2;SDS_P1;SDS_P2;PMS_P1;PMS_P2;Temp;Humidity;BMP_temperature;BMP_pressure;BME280_temperature;BME280_humidity;BME280_pressure;Samples;Min_cycle;Max_cycle;Signal;HPM_P1;HPM_P2
2024/03/31 00:00:00;;;;;;;22.27;4.82;;;;;;;10.26;63.88;94950.34;4975775;28;20546;-81
2024/03/31 00:02:26;;;;;;;30.52;5.38;;;;;;;10.23;64.04;94953.41;4975271;28;20558;-80
2024/03/31 00:04:53;;;;;;;27.02;4.65;;;;;;;10.23;64.50;94953.41;4975819;28;20051;-80
2024/03/31 00:07:19;;;;;;;15.80;4.30;;;;;;;10.31;64.75;94979.19;4975205;28;20106;-81
2024/03/31 00:09:48;;;;;;;15.40;4.28;;;;;;;10.38;64.38;94984.31;4974891;28;20418;-80
2024/03/31 00:12:14;;;;;;;25.20;5.05;;;;;;;10.39;63.79;94987.72;4975404;28;20121;-80
2024/03/31 00:14:41;;;;;;;21.77;4.93;;;;;;;10.34;63.95;94998.00;4974558;28;20486;-80
2024/03/31 00:17:08;;;;;;;31.25;5.55;;;;;;;10.31;64.19;94997.41;4975305;28;20062;-80
2024/03/31 00:19:34;;;;;;;29.35;5.07;;;;;;;10.28;64.07;95003.06;4974521;28;20062;-81
2024/03/31 00:22:00;;;;;;;19.83;5.55;;;;;;;10.24;64.04;95004.50;4974317;28;20058;-80
2024/03/31 00:24:27;;;;;;;20.00;5.32;;;;;;;10.22;64.21;95005.75;4984670;28;20063;-81
2024/03/31 00:26:54;;;;;;;24.75;5.95;;;;;;;10.20;64.59;95015.59;4996825;28;20055;-80
2024/03/31 00:29:21;;;;;;;36.67;6.38;;;;;;;10.19;64.32;95021.78;4988803;28;20059;-80
2024/03/31 00:31:47;;;;;;;27.98;6.57;;;;;;;10.16;64.50;95027.44;4975524;28;20046;-80
2024/03/31 00:34:14;;;;;;;25.63;6.57;;;;;;;10.12;64.84;95034.88;4974342;28;20215;-81
2024/03/31 00:36:40;;;;;;;23.73;6.35;;;;;;;10.09;65.00;95040.53;4974173;28;20055;-81
2024/03/31 00:39:09;;;;;;;30.33;6.40;;;;;;;10.08;65.01;95044.19;4973884;28;20438;-81
2024/03/31 00:41:34;;;;;;;21.15;6.18;;;;;;;10.06;64.94;95059.22;4975414;28;20058;-81
2024/03/31 00:44:03;;;;;;;18.20;5.32;;;;;;;10.09;65.78;95069.22;4975578;28;20086;-81
2024/03/31 00:46:29;;;;;;;27.73;6.70;;;;;;;10.13;65.09;95067.75;4975146;28;20058;-81
2024/03/31 00:48:56;;;;;;;20.63;6.50;;;;;;;10.16;65.41;95074.34;4974507;28;20058;-81
2024/03/31 00:51:22;;;;;;;21.63;5.80;;;;;;;10.21;65.08;95090.13;4974403;28;20085;-80
2024/03/31 00:53:48;;;;;;;26.70;6.55;;;;;;;10.22;64.87;95089.13;4974207;28;20066;-81
2024/03/31 00:56:15;;;;;;;22.42;5.40;;;;;;;10.22;65.04;95091.72;4975711;28;20055;-81
2024/03/31 00:58:41;;;;;;;34.92;6.05;;;;;;;10.21;65.04;95098.75;4973648;28;20055;-80
2024/03/31 01:01:11;;;;;;;32.65;6.78;;;;;;;10.21;65.22;95103.97;4973608;28;20051;-80
2024/03/31 01:03:37;;;;;;;36.13;6.30;;;;;;;10.24;64.99;95115.75;4974609;28;20105;-80
2024/03/31 01:06:09;;;;;;;29.02;5.40;;;;;;;10.23;65.29;95116.75;4973591;28;20054;-81
2024/03/31 01:08:34;;;;;;;31.23;5.97;;;;;;;10.23;65.12;95124.59;4973596;28;20050;-81
2024/03/31 01:11:04;;;;;;;19.33;4.97;;;;;;;10.22;65.16;95126.41;4973849;28;20078;-81
2024/03/31 01:13:31;;;;;;;28.27;7.15;;;;;;;10.22;65.13;95128.22;4973325;28;20499;-80
2024/03/31 01:15:58;;;;;;;22.08;5.38;;;;;;;10.21;65.34;95130.03;4972544;28;20552;-81
2024/03/31 01:18:26;;;;;;;23.15;5.53;;;;;;;10.21;65.75;95134.41;4973183;28;20059;-81
2024/03/31 01:20:52;;;;;;;25.48;5.30;;;;;;;10.19;65.71;95136.44;4973252;28;20059;-81
2024/03/31 01:23:22;;;;;;;24.98;5.28;;;;;;;10.20;66.06;95144.06;4973518;28;20062;-81
2024/03/31 01:25:50;;;;;;;25.77;5.93;;;;;;;10.22;66.00;95157.66;4973519;28;20129;-81
2024/03/31 01:28:16;;;;;;;33.05;6.35;;;;;;;10.21;66.15;95161.31;4973373;28;20088;-81
2024/03/31 01:30:42;;;;;;;28.85;5.00;;;;;;;10.20;66.33;95161.50;4972987;28;20051;-80
2024/03/31 01:33:09;;;;;;;28.05;5.80;;;;;;;10.20;66.40;95162.28;4973304;28;20054;-80
2024/03/31 01:35:35;;;;;;;20.20;4.72;;;;;;;10.27;66.56;95172.66;4973012;28;20058;-80
2024/03/31 01:38:01;;;;;;;24.13;5.88;;;;;;;10.35;66.31;95174.25;4973199;28;20058;-80
2024/03/31 01:40:28;;;;;;;29.73;6.35;;;;;;;10.40;66.03;95184.81;4973406;28;20137;-81
2024/03/31 01:42:55;;;;;;;27.33;5.20;;;;;;;10.45;66.24;95179.72;4973166;28;20081;-81
2024/03/31 01:45:21;;;;;;;31.83;7.07;;;;;;;10.48;65.88;95163.69;4972470;28;20058;-80
2024/03/31 01:47:47;;;;;;;26.08;6.72;;;;;;;10.51;66.14;95155.41;4972760;28;20047;-80
2024/03/31 01:50:14;;;;;;;27.50;7.25;;;;;;;10.52;65.88;95146.59;4972760;28;20058;-80
2024/03/31 01:52:39;;;;;;;24.35;7.68;;;;;;;10.51;65.99;95148.38;4973038;28;20085;-80
2024/03/31 01:55:06;;;;;;;25.77;6.28;;;;;;;10.50;65.97;95133.78;4972867;28;20714;-80
2024/03/31 01:57:32;;;;;;;31.88;7.05;;;;;;;10.49;66.01;95100.09;4972899;28;20434;-80
2024/03/31 02:00:00;;;;;;;22.17;5.53;;;;;;;10.48;66.22;95030.72;4972528;28;20138;-81
2024/03/31 02:02:26;;;;;;;25.55;5.40;;;;;;;10.47;65.88;94987.41;4973160;28;20066;-80
2024/03/31 02:04:53;;;;;;;24.45;5.45;;;;;;;10.46;66.05;94965.75;4972347;28;20058;-80
2024/03/31 02:07:19;;;;;;;23.48;4.60;;;;;;;10.48;65.95;94960.34;4972859;28;20058;-81
2024/03/31 02:09:45;;;;;;;24.88;5.72;;;;;;;10.54;66.20;94974.28;4972821;28;20105;-81
2024/03/31 02:12:11;;;;;;;20.95;4.93;;;;;;;10.63;66.39;94992.03;4972657;28;20117;-80
2024/03/31 02:14:38;;;;;;;21.20;4.22;;;;;;;10.73;66.06;95001.91;4972347;28;20129;-80
2024/03/31 02:17:05;;;;;;;13.48;4.88;;;;;;;10.84;65.79;95002.97;4972673;28;20102;-81
2024/03/31 02:19:32;;;;;;;14.00;4.18;;;;;;;10.90;65.66;95017.72;4980024;28;20038;-81
2024/03/31 02:21:58;;;;;;;24.90;5.95;;;;;;;10.96;65.28;95019.47;4975471;28;20427;-80
2024/03/31 02:24:25;;;;;;;21.13;5.00;;;;;;;10.95;65.14;95010.03;5002765;23;20183;-81
2024/03/31 02:26:52;;;;;;;31.10;5.93;;;;;;;10.94;65.05;95011.06;4982582;28;20054;-81
2024/03/31 02:29:23;;;;;;;24.70;5.15;;;;;;;10.93;65.17;94988.56;4983442;28;20031;-81
2024/03/31 02:31:50;;;;;;;30.65;6.47;;;;;;;10.90;65.17;94991.66;4982764;28;20035;-79
2024/03/31 02:34:24;;;;;;;22.02;4.70;;;;;;;10.86;65.81;95006.94;4982442;28;20031;-81
2024/03/31 02:36:51;;;;;;;17.83;5.18;;;;;;;10.89;65.78;95009.13;4982693;28;20041;-80
2024/03/31 02:39:20;;;;;;;20.92;4.93;;;;;;;10.93;65.71;94993.78;4982464;28;20027;-82
2024/03/31 02:41:51;;;;;;;25.70;6.00;;;;;;;10.92;65.71;95005.25;4982349;28;20045;-80
2024/03/31 02:44:24;;;;;;;22.30;5.03;;;;;;;10.95;66.10;95001.41;4982233;28;20028;-81
2024/03/31 02:46:56;;;;;;;20.38;6.13;;;;;;;11.03;65.78;95004.50;4982472;28;20062;-80
2024/03/31 02:49:25;;;;;;;22.40;6.88;;;;;;;11.12;65.89;95010.19;4982139;28;20066;-81
2024/03/31 02:51:55;;;;;;;22.30;6.50;;;;;;;11.20;65.14;95006.47;4982178;28;20027;-80
2024/03/31 02:54:22;;;;;;;19.77;6.35;;;;;;;11.26;64.84;95010.78;4981925;28;20031;-81
2024/03/31 02:56:56;;;;;;;21.25;5.55;;;;;;;11.26;64.39;95002.94;4982146;28;20035;-82
2024/03/31 02:59:23;;;;;;;19.95;5.47;;;;;;;11.17;64.58;94996.47;4981772;28;20035;-82
2024/03/31 03:01:51;;;;;;;26.02;5.82;;;;;;;11.09;64.56;94990.56;4981965;28;20035;-80
2024/03/31 03:04:24;;;;;;;36.13;5.97;;;;;;;11.02;64.64;94995.09;4981598;28;20035;-81
2024/03/31 03:06:57;;;;;;;;;;;;;;;10.96;64.79;94982.94;4982331;28;20035;-81
2024/03/31 03:09:26;;;;;;;25.80;5.22;;;;;;;10.85;64.97;94973.28;4982110;28;19910;-80
2024/03/31 03:11:59;;;;;;;22.33;5.25;;;;;;;10.77;65.33;94984.81;4982034;28;20039;-81
2024/03/31 03:14:26;;;;;;;24.27;5.88;;;;;;;10.70;65.61;94987.50;4981672;28;20031;-80
2024/03/31 03:16:57;;;;;;;23.33;6.35;;;;;;;10.68;65.79;94975.72;4981688;28;20069;-80
2024/03/31 03:19:24;;;;;;;21.55;5.85;;;;;;;10.63;65.67;94972.97;4981866;28;20031;-80
2024/03/31 03:21:54;;;;;;;22.23;5.80;;;;;;;10.57;66.26;94977.25;4981206;28;20031;-80
2024/03/31 03:24:24;;;;;;;25.40;4.68;;;;;;;10.58;66.27;94976.22;4980933;28;20054;-81
2024/03/31 03:26:52;;;;;;;29.67;6.05;;;;;;;10.58;65.92;94968.41;4981538;28;20028;-80
2024/03/31 03:29:24;;;;;;;18.88;6.68;;;;;;;10.57;66.09;94960.81;4981483;28;20023;-80
2024/03/31 03:31:54;;;;;;;18.42;4.32;;;;;;;10.55;65.98;94965.47;4981127;28;20051;-81
2024/03/31 03:34:26;;;;;;;21.83;4.35;;;;;;;10.58;66.71;94965.78;4981251;28;20045;-81
2024/03/31 03:36:59;;;;;;;25.25;4.75;;;;;;;10.58;65.78;94970.22;4980865;28;20047;-80
2024/03/31 03:39:27;;;;;;;17.38;4.68;;;;;;;10.54;66.23;94961.25;4981020;28;20070;-81
2024/03/31 03:41:59;;;;;;;17.63;5.40;;;;;;;10.50;65.91;94966.13;4981462;28;20031;-81
2024/03/31 03:44:30;;;;;;;23.73;5.07;;;;;;;10.45;65.91;94973.78;4980454;28;20059;-80
2024/03/31 03:46:59;;;;;;;17.75;4.95;;;;;;;10.40;66.08;94992.69;4981331;28;20347;-81
2024/03/31 03:49:27;;;;;;;20.67;4.60;;;;;;;10.38;65.83;94986.91;4981246;28;20027;-81
2024/03/31 03:52:02;;;;;;;22.40;4.50;;;;;;;10.30;66.28;94980.22;4981273;28;20086;-80
2024/03/31 03:54:32;;;;;;;20.75;4.65;;;;;;;10.19;65.80;94978.31;4981122;28;20039;-81
2024/03/31 03:57:03;;;;;;;26.35;5.45;;;;;;;10.07;65.99;94977.44;4980753;28;20031;-81
2024/03/31 03:59:29;;;;;;;16.30;4.70;;;;;;;9.98;66.24;94989.19;4980917;28;20094;-82
2024/03/31 04:01:58;;;;;;;17.98;3.92;;;;;;;9.87;66.31;94995.91;4980804;28;20058;-82
2024/03/31 04:04:25;;;;;;;28.55;5.00;;;;;;;9.79;66.38;94996.97;4980285;28;20071;-81
2024/03/31 04:06:56;;;;;;;23.10;4.95;;;;;;;9.70;66.61;94990.44;4979930;28;20043;-80
2024/03/31 04:09:29;;;;;;;11.48;3.03;;;;;;;9.67;67.46;94999.50;4980863;28;20035;-80
2024/03/31 04:11:59;;;;;;;;;;;;;;;9.69;67.07;95001.88;4981016;28;20078;-83
2024/03/31 04:14:28;;;;;;;20.88;5.22;;;;;;;9.67;67.84;94988.28;4978304;28;19922;-83
2024/03/31 04:16:56;;;;;;;22.85;5.38;;;;;;;9.71;68.49;94981.66;4977303;28;20047;-83
2024/03/31 04:19:28;;;;;;;22.17;4.43;;;;;;;9.74;67.81;94978.59;4979801;28;20039;-80
2024/03/31 04:22:00;;;;;;;22.90;5.35;;;;;;;9.75;67.78;94979.38;4980398;28;20039;-81
2024/03/31 04:24:28;;;;;;;21.42;3.72;;;;;;;9.77;67.46;94987.78;4980064;28;20047;-81
2024/03/31 04:26:56;;;;;;;22.02;3.58;;;;;;;9.78;66.62;94986.78;4980349;28;20029;-80
2024/03/31 04:29:23;;;;;;;16.25;3.75;;;;;;;9.79;67.10;94980.53;4980402;28;20031;-80
2024/03/31 04:31:55;;;;;;;12.02;3.88;;;;;;;9.79;66.39;94986.53;4980414;28;20037;-81
2024/03/31 04:34:29;;;;;;;17.88;3.83;;;;;;;9.75;65.98;94997.63;4980320;28;20032;-80
2024/03/31 04:36:58;;;;;;;12.40;2.95;;;;;;;9.73;65.81;95003.06;4980243;28;20027;-81
2024/03/31 04:39:25;;;;;;;14.00;3.45;;;;;;;9.67;65.45;94998.69;4980350;28;20047;-80
2024/03/31 04:42:00;;;;;;;12.93;3.45;;;;;;;9.59;66.83;95002.38;4979605;28;20041;-81
2024/03/31 04:44:29;;;;;;;16.20;3.15;;;;;;;9.51;66.27;95001.84;4979842;28;20090;-81
2024/03/31 04:46:58;;;;;;;17.92;4.22;;;;;;;9.45;66.19;95012.09;4979644;28;20035;-80
2024/03/31 04:49:27;;;;;;;19.02;4.35;;;;;;;9.44;66.01;95009.72;4979917;28;20035;-81
2024/03/31 04:52:00;;;;;;;18.83;4.40;;;;;;;9.42;66.57;95012.53;4980076;28;20062;-81
2024/03/31 04:54:27;;;;;;;18.92;4.65;;;;;;;9.46;66.11;95015.50;4980021;28;20155;-81
2024/03/31 04:56:59;;;;;;;21.63;4.88;;;;;;;9.38;66.72;95003.56;4979916;28;20023;-81
2024/03/31 04:59:30;;;;;;;14.38;3.85;;;;;;;9.35;67.08;95014.38;4979902;28;20039;-81
2024/03/31 05:01:58;;;;;;;17.58;3.90;;;;;;;9.33;66.50;95013.78;4979873;28;20031;-81
2024/03/31 05:04:25;;;;;;;16.13;4.50;;;;;;;9.32;66.57;95014.03;4979526;28;20043;-81
2024/03/31 05:06:53;;;;;;;17.48;6.00;;;;;;;9.31;66.62;95020.22;4979768;28;20035;-80
2024/03/31 05:09:22;;;;;;;20.10;5.00;;;;;;;9.30;66.38;95019.44;4979655;28;20031;-81
2024/03/31 05:11:53;;;;;;;14.60;4.20;;;;;;;9.27;66.58;95025.06;4979643;28;20031;-81
2024/03/31 05:14:27;;;;;;;21.58;5.07;;;;;;;9.31;66.70;95031.44;4979454;28;20183;-80
2024/03/31 05:16:55;;;;;;;15.65;3.90;;;;;;;9.34;67.05;95031.03;4979626;28;20034;-81
2024/03/31 05:19:25;;;;;;;34.58;6.05;;;;;;;9.35;66.15;95032.59;4979381;28;20133;-81
2024/03/31 05:21:53;;;;;;;14.93;3.92;;;;;;;9.42;67.51;95035.16;4979275;28;20027;-81
2024/03/31 05:24:22;;;;;;;14.30;3.33;;;;;;;9.46;65.70;95039.72;4979013;28;20062;-81
2024/03/31 05:26:50;;;;;;;19.92;3.15;;;;;;;9.38;65.26;95040.00;4979470;28;20032;-81
2024/03/31 05:29:19;;;;;;;17.45;3.38;;;;;;;9.26;65.13;95044.28;4979282;28;20051;-81
2024/03/31 05:31:50;;;;;;;16.95;3.05;;;;;;;9.15;66.11;95037.97;4978669;28;20031;-81
2024/03/31 05:34:19;;;;;;;19.50;3.70;;;;;;;9.15;66.41;95050.16;4979366;28;20032;-81
2024/03/31 05:36:47;;;;;;;27.25;3.63;;;;;;;9.07;65.81;95070.25;4979250;28;20039;-79
2024/03/31 05:39:16;;;;;;;20.13;3.85;;;;;;;8.99;66.03;95072.28;4979385;28;20033;-81
2024/03/31 05:41:44;;;;;;;21.52;4.20;;;;;;;8.93;65.98;95071.31;4979106;28;20031;-80
2024/03/31 05:44:13;;;;;;;19.00;4.25;;;;;;;8.89;66.23;95059.72;4979138;28;20046;-79
2024/03/31 05:46:46;;;;;;;15.18;4.97;;;;;;;8.83;66.50;95076.16;4979264;28;20035;-81
2024/03/31 05:49:14;;;;;;;19.75;5.18;;;;;;;8.82;66.95;95069.38;4978649;28;20049;-81
2024/03/31 05:51:43;;;;;;;21.58;5.85;;;;;;;8.86;66.40;95078.34;4979251;28;20051;-80
2024/03/31 05:54:14;;;;;;;12.85;4.45;;;;;;;8.86;66.81;95073.16;4979222;28;20023;-81
2024/03/31 05:56:47;;;;;;;24.30;5.20;;;;;;;8.89;66.79;95069.34;4979074;28;20035;-81
2024/03/31 05:59:16;;;;;;;21.35;4.57;;;;;;;8.91;66.67;95070.72;4959319;28;20031;-81
2024/03/31 06:01:47;;;;;;;15.95;3.83;;;;;;;8.89;66.33;95070.13;4962086;28;20035;-81
2024/03/31 06:04:17;;;;;;;14.52;4.07;;;;;;;8.87;66.94;95067.72;4963654;28;20039;-81
2024/03/31 06:06:48;;;;;;;28.48;6.13;;;;;;;8.88;66.74;95065.94;4963863;28;20032;-81
2024/03/31 06:09:14;;;;;;;12.07;4.22;;;;;;;8.86;67.19;95063.53;4963853;28;20036;-80
2024/03/31 06:11:42;;;;;;;28.27;5.38;;;;;;;8.85;67.25;95058.53;4963693;28;20046;-81
2024/03/31 06:14:09;;;;;;;22.95;4.60;;;;;;;8.83;67.51;95050.97;4963493;28;20032;-81
2024/03/31 06:16:40;;;;;;;15.13;4.43;;;;;;;8.85;67.52;95046.34;4963310;28;20047;-81
2024/03/31 06:19:11;;;;;;;22.98;6.40;;;;;;;8.91;67.64;95042.13;4963737;28;20036;-80
2024/03/31 06:21:42;;;;;;;13.35;4.13;;;;;;;8.98;68.79;95042.06;4963454;28;20042;-81
2024/03/31 06:24:12;;;;;;;24.27;6.10;;;;;;;9.10;67.84;95039.63;4963218;28;20034;-81
2024/03/31 06:26:41;;;;;;;25.15;6.55;;;;;;;9.13;67.36;95029.56;4962920;28;20051;-81
2024/03/31 06:29:07;;;;;;;27.60;8.10;;;;;;;9.17;66.95;95029.94;4963164;28;20062;-81
2024/03/31 06:31:39;;;;;;;28.08;9.50;;;;;;;9.18;67.50;95021.13;4963135;28;20055;-81
2024/03/31 06:34:09;;;;;;;27.83;8.23;;;;;;;9.22;67.64;95017.09;4963129;28;20043;-80
2024/03/31 06:36:37;;;;;;;32.00;6.60;;;;;;;9.28;67.81;95018.84;4962936;28;20304;-79
2024/03/31 06:39:06;;;;;;;22.15;7.47;;;;;;;9.38;68.12;95011.38;4962345;28;20067;-81
2024/03/31 06:41:34;;;;;;;25.83;7.22;;;;;;;9.48;67.96;95019.47;4963225;28;20027;-81
2024/03/31 06:44:01;;;;;;;24.73;7.80;;;;;;;9.63;68.30;95016.56;4962968;28;20038;-81
2024/03/31 06:46:30;;;;;;;26.05;9.05;;;;;;;9.80;68.03;95014.19;4962460;28;20036;-81
2024/03/31 06:48:59;;;;;;;29.67;6.70;;;;;;;9.94;67.74;95004.44;4963148;28;20045;-82
2024/03/31 06:51:30;;;;;;;;;;;;;;;10.10;67.71;95003.03;4963207;28;20043;-82
2024/03/31 06:53:57;;;;;;;24.08;6.07;;;;;;;10.19;66.79;94999.16;4962186;28;19910;-82
2024/03/31 06:56:31;;;;;;;18.13;5.53;;;;;;;10.28;68.24;94999.66;4963152;28;20046;-82
2024/03/31 06:59:04;;;;;;;18.38;4.40;;;;;;;10.44;67.32;94993.06;4962721;28;20031;-81
2024/03/31 07:01:36;;;;;;;20.52;5.88;;;;;;;10.61;66.92;94983.63;4962614;28;20071;-81
2024/03/31 07:04:05;;;;;;;25.98;6.20;;;;;;;10.79;66.69;94979.38;4962018;28;20028;-80
2024/03/31 07:06:40;;;;;;;16.10;5.22;;;;;;;10.92;66.33;94972.13;4962647;28;20039;-81
2024/03/31 07:09:09;;;;;;;22.95;4.45;;;;;;;11.03;66.68;94967.97;4962915;28;20079;-80
2024/03/31 07:11:43;;;;;;;19.58;4.45;;;;;;;11.12;66.76;94969.22;4961953;28;20051;-81
2024/03/31 07:14:11;;;;;;;18.88;5.35;;;;;;;11.22;66.21;94968.69;4962002;28;20058;-81
2024/03/31 07:19:16;;;;;;;19.08;5.13;;;;;;;11.41;66.17;94945.88;4981220;28;20056;-82
2024/03/31 07:43:28;;;;;;;16.40;2.75;;;;;;;11.96;64.53;94942.13;4980653;28;20300;-81
2024/03/31 07:46:11;;;;;;;19.50;4.85;;;;;;;12.00;64.75;94935.38;5026209;23;20042;-81
2024/03/31 07:48:47;;;;;;;16.92;3.88;;;;;;;12.06;64.95;94936.28;4998626;23;20062;-81
2024/03/31 07:51:26;;;;;;;13.98;3.42;;;;;;;12.11;64.61;94936.38;4982865;29;20029;-82
2024/03/31 07:53:58;;;;;;;19.95;4.18;;;;;;;12.18;64.63;94938.84;4981405;28;20031;-81
2024/03/31 07:56:36;;;;;;;14.48;3.00;;;;;;;12.27;65.00;94943.50;4981114;28;20053;-82
2024/03/31 08:01:46;;;;;;;18.50;3.85;;;;;;;12.40;63.49;94939.00;5668807;23;20042;-82
2024/03/31 08:04:16;;;;;;;24.35;3.42;;;;;;;12.45;63.14;94936.50;4978141;23;20036;-82
2024/03/31 08:06:53;;;;;;;23.30;6.38;;;;;;;12.51;62.76;94948.63;4962908;28;20042;-83
2024/03/31 08:12:14;;;;;;;24.00;4.63;;;;;;;12.66;62.15;94935.84;5156873;23;20070;-81
2024/03/31 08:20:10;;;;;;;19.55;3.22;;;;;;;13.40;60.09;94924.44;5051141;23;20046;-82
2024/03/31 08:22:52;;;;;;;17.05;3.60;;;;;;;13.68;59.59;94920.13;4962438;28;20042;-81
2024/03/31 08:25:42;;;;;;;23.85;4.38;;;;;;;13.89;58.99;94929.81;5426103;23;20063;-85
2024/03/31 08:28:16;;;;;;;13.70;3.60;;;;;;;14.10;58.34;94933.50;4960822;28;20040;-84
2024/03/31 08:30:51;;;;;;;15.18;3.90;;;;;;;14.30;57.87;94938.19;4960725;28;20035;-86
2024/03/31 08:33:24;;;;;;;14.40;3.35;;;;;;;14.47;56.93;94945.16;4957744;28;20032;-81
2024/03/31 08:41:42;;;;;;;13.40;3.42;;;;;;;14.47;57.60;94938.06;5620563;23;20043;-80
2024/03/31 08:46:55;;;;;;;17.45;2.80;;;;;;;14.76;56.90;94932.63;5045497;23;20062;-83
2024/03/31 09:38:27;;;;;;;23.75;4.22;;;;;;;18.72;48.96;94898.72;5062645;23;20119;-85
2024/03/31 09:41:16;;;;;;;13.82;2.78;;;;;;;19.37;48.98;94881.84;4979585;28;20035;-84
2024/03/31 09:43:49;;;;;;;17.23;3.10;;;;;;;19.93;44.67;94882.06;4979539;28;20031;-84
2024/03/31 09:46:16;;;;;;;19.13;3.03;;;;;;;20.40;45.29;94877.00;4978509;28;20042;-86
2024/03/31 09:48:46;;;;;;;19.08;2.80;;;;;;;20.81;42.62;94887.00;5008757;23;20034;-80
2024/03/31 09:51:16;;;;;;;25.98;3.92;;;;;;;21.15;42.51;94875.38;4935308;29;20134;-79
2024/03/31 09:53:54;;;;;;;13.70;3.05;;;;;;;21.32;41.43;94874.81;4935335;29;20064;-79
2024/03/31 09:56:29;;;;;;;13.23;2.50;;;;;;;21.55;42.00;94878.41;4937220;29;20060;-80
2024/03/31 09:59:03;;;;;;;16.30;2.83;;;;;;;21.60;41.92;94870.34;4934888;29;20057;-79
2024/03/31 10:01:32;;;;;;;14.93;2.55;;;;;;;21.43;40.07;94872.78;4934896;29;20058;-79
2024/03/31 10:04:05;;;;;;;10.75;2.20;;;;;;;21.29;40.62;94873.50;4934601;29;20111;-79
2024/03/31 10:06:32;;;;;;;19.55;3.50;;;;;;;21.18;39.84;94872.91;4935044;29;20048;-80
2024/03/31 10:09:00;;;;;;;15.50;2.53;;;;;;;21.18;39.83;94874.78;4935168;29;20056;-79
2024/03/31 10:11:29;;;;;;;15.70;2.30;;;;;;;21.42;39.22;94873.88;4937759;29;20475;-79
2024/03/31 10:13:59;;;;;;;16.02;3.10;;;;;;;21.57;38.79;94868.28;4958321;29;20055;-79
2024/03/31 10:16:28;;;;;;;;;;;;;;;21.59;39.70;94866.91;4957941;29;20050;-80
2024/03/31 10:18:57;;;;;;;15.15;2.47;;;;;;;21.64;38.44;94870.56;4936459;29;20394;-79
2024/03/31 10:21:23;;;;;;;20.67;2.20;;;;;;;;;;4935119;29;20052;-79
2024/03/31 10:23:51;;;;;;;16.17;2.85;;;;;;;21.87;38.82;94853.66;4935044;29;20427;-79
2024/03/31 10:26:17;;;;;;;15.95;2.55;;;;;;;21.96;38.58;94848.44;4934747;29;20405;-80
2024/03/31 10:28:47;;;;;;;20.58;3.75;;;;;;;22.01;36.88;94840.34;4935083;29;20055;-80
2024/03/31 10:31:13;;;;;;;18.35;2.63;;;;;;;22.04;37.91;94837.13;4955575;29;20050;-80
2024/03/31 10:33:40;;;;;;;24.10;3.78;;;;;;;22.00;37.67;94831.63;4957719;29;20075;-79
2024/03/31 10:36:09;;;;;;;18.08;2.30;;;;;;;22.00;36.88;94828.97;4957788;29;20052;-79
2024/03/31 10:38:36;;;;;;;14.50;2.70;;;;;;;22.01;36.09;94829.75;4949995;28;20056;-80
2024/03/31 10:41:02;;;;;;;19.48;2.75;;;;;;;22.05;35.47;94828.06;4935487;29;20064;-79
2024/03/31 10:43:30;;;;;;;14.90;3.30;;;;;;;22.29;36.15;94821.75;4935068;29;20460;-80
2024/03/31 10:45:57;;;;;;;12.38;2.35;;;;;;;22.60;35.61;94827.94;4934830;29;20044;-79
2024/03/31 10:48:25;;;;;;;14.40;2.42;;;;;;;22.89;35.69;94829.38;4937945;29;20062;-79
2024/03/31 10:50:51;;;;;;;15.30;2.67;;;;;;;23.25;35.20;94825.88;4938375;29;20420;-79
2024/03/31 10:53:25;;;;;;;14.75;2.40;;;;;;;23.52;35.02;94824.91;4938255;29;20055;-80
2024/03/31 10:55:51;;;;;;;15.60;2.75;;;;;;;23.59;34.40;94819.13;4938254;29;20056;-79
2024/03/31 10:58:18;;;;;;;18.10;2.83;;;;;;;23.49;33.89;94816.75;4938056;29;20083;-80
2024/03/31 11:00:46;;;;;;;20.77;2.80;;;;;;;23.30;33.88;94817.75;4938125;29;20056;-79
2024/03/31 11:03:14;;;;;;;21.48;3.00;;;;;;;23.01;33.55;94816.38;4939356;29;20054;-79
2024/03/31 11:05:40;;;;;;;18.77;2.17;;;;;;;22.69;34.39;94819.25;4937897;29;20059;-80
2024/03/31 11:08:09;;;;;;;22.10;2.25;;;;;;;22.50;35.29;94819.41;4937706;29;20055;-79
2024/03/31 11:10:36;;;;;;;24.80;2.75;;;;;;;22.30;35.23;94812.69;4937911;29;20055;-79
2024/03/31 11:13:04;;;;;;;19.35;2.90;;;;;;;22.11;34.48;94816.25;4938120;29;20074;-79
2024/03/31 11:15:32;;;;;;;18.38;2.85;;;;;;;21.89;34.59;94824.16;4937916;29;20480;-80
2024/03/31 11:17:59;;;;;;;13.65;1.95;;;;;;;21.69;34.47;94818.19;4945802;28;20043;-80
2024/03/31 11:20:27;;;;;;;15.85;2.50;;;;;;;21.54;34.89;94826.44;4940967;29;20052;-80
2024/03/31 11:22:54;;;;;;;11.75;2.03;;;;;;;21.31;34.97;94820.97;4938396;29;20428;-79
2024/03/31 11:25:21;;;;;;;18.10;2.72;;;;;;;21.10;35.19;94825.06;4936987;29;20123;-80
2024/03/31 11:27:50;;;;;;;13.32;2.10;;;;;;;20.80;35.88;94816.56;4937192;29;20103;-79
2024/03/31 11:30:17;;;;;;;15.30;2.78;;;;;;;20.61;36.55;94818.44;4937506;29;20428;-79
2024/03/31 11:32:45;;;;;;;18.55;3.45;;;;;;;20.42;36.54;94813.91;4937314;29;20059;-80
2024/03/31 11:35:12;;;;;;;21.50;3.45;;;;;;;20.24;37.29;94812.06;4938189;29;20393;-79
2024/03/31 11:37:40;;;;;;;15.75;2.83;;;;;;;20.05;37.12;94812.06;4938266;29;20051;-80
2024/03/31 11:40:08;;;;;;;18.25;3.85;;;;;;;19.83;37.82;94804.66;4937759;29;20103;-79
2024/03/31 11:42:35;;;;;;;19.98;3.72;;;;;;;19.67;38.44;94807.47;4937467;29;20066;-80
2024/03/31 11:45:03;;;;;;;18.40;3.38;;;;;;;19.55;38.46;94807.88;4937347;29;20055;-79
2024/03/31 11:47:30;;;;;;;19.08;3.30;;;;;;;19.37;39.08;94805.16;4936783;29;20520;-79
2024/03/31 11:49:57;;;;;;;15.32;3.08;;;;;;;19.20;39.45;94808.25;4937184;29;20115;-80
2024/03/31 11:52:25;;;;;;;18.48;3.53;;;;;;;19.06;40.01;94795.69;4936725;29;20060;-79
2024/03/31 11:54:52;;;;;;;19.27;3.45;;;;;;;19.00;39.82;94809.22;4936286;29;20052;-79
2024/03/31 11:57:19;;;;;;;17.63;4.20;;;;;;;18.91;39.86;94801.94;4936480;29;20059;-79
2024/03/31 11:59:54;;;;;;;17.45;3.10;;;;;;;18.82;40.17;94797.50;4936285;29;20060;-79
2024/03/31 12:02:21;;;;;;;17.15;3.15;;;;;;;18.72;40.57;94793.09;4937007;29;20068;-79
2024/03/31 12:04:49;;;;;;;17.83;3.40;;;;;;;18.64;40.74;94788.38;4937526;29;20058;-79
2024/03/31 12:07:16;;;;;;;23.27;3.75;;;;;;;18.57;41.15;94791.34;4936354;29;20107;-79
2024/03/31 12:09:42;;;;;;;18.45;3.22;;;;;;;18.53;41.27;94785.03;4936423;29;20056;-79
2024/03/31 12:12:11;;;;;;;18.02;3.08;;;;;;;18.48;41.72;94795.66;4936816;29;20061;-79
2024/03/31 12:14:38;;;;;;;21.30;3.90;;;;;;;18.41;41.69;94782.75;4936728;29;20452;-81
2024/03/31 12:17:05;;;;;;;17.17;3.78;;;;;;;18.37;41.92;94778.31;4936206;29;20102;-81
2024/03/31 12:19:31;;;;;;;20.10;4.07;;;;;;;18.33;42.12;94772.78;4936025;29;20538;-79
2024/03/31 12:21:58;;;;;;;28.98;4.22;;;;;;;18.32;42.49;94773.84;4936600;29;20055;-78
2024/03/31 12:24:24;;;;;;;25.20;3.75;;;;;;;18.38;42.56;94769.31;4936335;29;20055;-79
2024/03/31 12:26:52;;;;;;;23.15;3.58;;;;;;;18.47;42.52;94770.28;4936312;29;20051;-82
2024/03/31 12:29:20;;;;;;;24.30;4.13;;;;;;;18.59;42.89;94768.09;4936141;29;20409;-81
2024/03/31 12:31:47;;;;;;;21.95;4.50;;;;;;;18.72;42.31;94762.16;4936657;29;20091;-81
2024/03/31 12:34:13;;;;;;;22.25;4.18;;;;;;;18.83;42.61;94759.47;4935975;29;20055;-82
2024/03/31 12:36:41;;;;;;;18.85;3.95;;;;;;;18.89;41.65;94755.69;4935849;29;20071;-81
2024/03/31 12:39:08;;;;;;;18.25;4.25;;;;;;;18.91;41.78;94751.72;4938009;29;20051;-82
2024/03/31 12:41:35;;;;;;;15.73;3.00;;;;;;;18.88;41.73;94749.63;4935640;29;20051;-81
2024/03/31 12:44:06;;;;;;;17.00;3.55;;;;;;;18.83;41.42;94741.78;4935747;29;20063;-82
2024/03/31 12:46:35;;;;;;;23.02;3.60;;;;;;;18.85;42.02;94746.78;4935412;29;20145;-82
2024/03/31 12:49:05;;;;;;;24.85;3.90;;;;;;;18.87;41.61;94742.78;4935393;29;20059;-82
2024/03/31 12:51:32;;;;;;;21.02;3.65;;;;;;;18.84;40.90;94735.41;4936513;29;20062;-82
2024/03/31 12:53:58;;;;;;;21.33;3.78;;;;;;;18.77;41.08;94737.56;4935271;29;20098;-82
2024/03/31 12:56:25;;;;;;;19.23;3.80;;;;;;;18.68;41.30;94733.97;4935210;29;20059;-82
2024/03/31 12:58:53;;;;;;;25.90;3.80;;;;;;;18.60;41.87;94742.47;4935196;29;20056;-81
2024/03/31 13:01:20;;;;;;;25.92;3.58;;;;;;;18.54;41.74;94744.34;4936362;29;20401;-82
2024/03/31 13:03:48;;;;;;;21.17;4.15;;;;;;;18.50;41.48;94733.59;4935352;29;20063;-81
2024/03/31 13:06:16;;;;;;;20.98;3.75;;;;;;;18.39;41.81;94728.66;4935074;29;20111;-82
2024/03/31 13:08:44;;;;;;;25.98;5.18;;;;;;;18.32;42.46;94716.56;4935074;29;20118;-82